Terminal Aerodrome Forecast
Issued by NWS Sioux Falls, SD

Home | Current Version | Previous Version | Text Only | Print | Product List | Glossary On
Versions: 1 2 3 4 5 6 7 8 9 10 11 12 13
754
FTUS43 KFSD 260537
TAFFSD
TAF
KFSD 260537Z 2606/2706 VRB03KT P6SM VCSH SCT080 BKN110
      TEMPO 2606/2607 5SM SHRA BKN060
     FM260800 VRB03KT P6SM SCT090
     FM261600 03007KT P6SM FEW250
     FM270100 VRB03KT P6SM SKC=

USA.gov is the U.S. government's official web portal to all federal, state and local government web resources and services.